Time;durP1;ratioP1;P1;durP2;ratioP2;P2;SDS_P1;SDS_P2;PMS_P1;PMS_P2;Temp;Humidity;BMP_temperature;BMP_pressure;BME280_temperature;BME280_humidity;BME280_pressure;Samples;Min_cycle;Max_cycle;Signal;HPM_P1;HPM_P2
2022/03/14 00:01:14;;;;;;;32.67;13.88;;;8.80;98.20;;;;;;5055474;28;20422;-48
2022/03/14 00:03:58;;;;;;;34.88;13.88;;;8.70;98.70;;;;;;5056337;28;20475;-50
2022/03/14 00:06:25;;;;;;;26.40;12.75;;;8.60;99.00;;;;;;5055982;28;20032;-51
2022/03/14 00:08:57;;;;;;;30.17;13.77;;;8.50;99.70;;;;;;5056430;28;20025;-46
2022/03/14 00:11:26;;;;;;;28.95;13.32;;;8.50;99.60;;;;;;5056341;28;20021;-46
2022/03/14 00:13:53;;;;;;;29.50;12.70;;;8.40;99.90;;;;;;5056551;28;20166;-47
2022/03/14 00:16:23;;;;;;;30.05;13.15;;;8.40;99.90;;;;;;5054886;28;20054;-48
2022/03/14 00:18:51;;;;;;;30.60;13.77;;;8.30;99.90;;;;;;5056156;28;20513;-46
2022/03/14 00:21:22;;;;;;;32.97;14.55;;;8.30;99.90;;;;;;5054844;28;20029;-46
2022/03/14 00:23:49;;;;;;;26.42;12.55;;;8.30;99.90;;;;;;5055187;28;20025;-46
2022/03/14 00:26:14;;;;;;;30.05;14.25;;;8.40;99.90;;;;;;5055980;28;20036;-47
2022/03/14 00:28:40;;;;;;;27.42;13.35;;;8.40;99.90;;;;;;5055331;28;20116;-46
2022/03/14 00:31:05;;;;;;;29.67;12.85;;;8.50;99.90;;;;;;5055673;28;20021;-46
2022/03/14 00:33:31;;;;;;;25.10;12.57;;;8.40;99.90;;;;;;5054565;28;20116;-50
2022/03/14 00:35:57;;;;;;;34.08;13.30;;;8.40;99.90;;;;;;5055768;28;20025;-46
2022/03/14 00:38:25;;;;;;;26.02;13.23;;;8.40;99.90;;;;;;5054559;28;20017;-46
2022/03/14 00:40:51;;;;;;;25.27;11.63;;;8.50;99.90;;;;;;5055734;28;20036;-46
2022/03/14 00:43:17;;;;;;;27.10;13.23;;;8.60;99.90;;;;;;5055917;28;20017;-47
2022/03/14 00:45:43;;;;;;;25.15;12.50;;;8.60;99.90;;;;;;5054185;28;20053;-45
2022/03/14 00:48:09;;;;;;;26.95;13.52;;;8.60;99.90;;;;;;5054457;28;20025;-46
2022/03/14 00:50:35;;;;;;;29.00;14.32;;;8.70;99.90;;;;;;5055564;28;20075;-46
2022/03/14 00:53:01;;;;;;;27.17;13.57;;;8.60;99.90;;;;;;5054548;28;20021;-46
2022/03/14 00:55:26;;;;;;;28.25;12.55;;;8.50;99.90;;;;;;5055383;28;20392;-46
2022/03/14 00:57:52;;;;;;;26.90;12.70;;;8.40;99.90;;;;;;5054629;28;20029;-46
2022/03/14 01:00:17;;;;;;;24.80;12.32;;;8.40;99.90;;;;;;5055384;28;20040;-46
2022/03/14 01:02:43;;;;;;;28.92;12.35;;;8.40;99.90;;;;;;5055271;28;20032;-46
2022/03/14 01:05:09;;;;;;;30.00;13.55;;;8.30;99.90;;;;;;5055128;28;20029;-45
2022/03/14 01:07:35;;;;;;;26.83;12.70;;;8.40;99.90;;;;;;5055212;28;20491;-46
2022/03/14 01:10:04;;;;;;;23.73;12.43;;;8.30;99.90;;;;;;5053878;28;20108;-48
2022/03/14 01:12:30;;;;;;;25.65;13.32;;;8.20;99.90;;;;;;5053780;28;20025;-46
2022/03/14 01:14:56;;;;;;;29.38;13.70;;;8.30;99.90;;;;;;5053900;28;20032;-46
2022/03/14 01:17:22;;;;;;;29.35;13.52;;;8.10;99.90;;;;;;5054952;28;20036;-46
2022/03/14 01:19:47;;;;;;;29.83;13.32;;;8.00;99.90;;;;;;5055025;28;20091;-46
2022/03/14 01:22:13;;;;;;;30.13;13.25;;;7.90;99.90;;;;;;5054853;28;20029;-47
2022/03/14 01:24:39;;;;;;;30.50;13.43;;;7.80;99.90;;;;;;5053878;28;20036;-46
2022/03/14 01:27:08;;;;;;;27.73;12.30;;;7.70;99.90;;;;;;5055064;28;20020;-46
2022/03/14 01:29:34;;;;;;;30.15;12.57;;;7.80;99.90;;;;;;5054844;28;20024;-46
2022/03/14 01:32:02;;;;;;;29.67;13.57;;;7.80;99.90;;;;;;5055028;28;20029;-49
2022/03/14 01:34:28;;;;;;;26.95;12.93;;;7.80;99.90;;;;;;5053975;28;20033;-46
2022/03/14 01:36:53;;;;;;;27.48;12.50;;;7.80;99.90;;;;;;5053471;28;20047;-46
2022/03/14 01:39:19;;;;;;;28.00;12.35;;;7.90;99.90;;;;;;5053709;28;20025;-46
2022/03/14 01:41:44;;;;;;;30.70;13.13;;;8.00;99.90;;;;;;5053282;28;20041;-47
2022/03/14 01:44:10;;;;;;;29.33;12.18;;;8.00;99.90;;;;;;5052986;28;20083;-46
2022/03/14 01:46:36;;;;;;;27.02;12.05;;;8.10;99.90;;;;;;5054733;28;20067;-47
2022/03/14 01:49:02;;;;;;;21.02;11.45;;;8.30;99.90;;;;;;5053104;28;20052;-46
2022/03/14 01:51:29;;;;;;;23.70;11.27;;;8.30;99.90;;;;;;5054412;28;20021;-47
2022/03/14 01:53:55;;;;;;;26.42;11.80;;;8.40;99.90;;;;;;5054882;28;20029;-49
2022/03/14 01:56:22;;;;;;;29.33;12.57;;;8.40;99.90;;;;;;5052978;28;20525;-51
2022/03/14 01:58:48;;;;;;;22.23;11.18;;;8.50;99.90;;;;;;5053203;28;20028;-46
2022/03/14 02:01:14;;;;;;;27.58;12.52;;;8.50;99.90;;;;;;5054451;28;20176;-46
2022/03/14 02:03:40;;;;;;;30.30;12.48;;;8.40;99.90;;;;;;5053653;28;20025;-47
2022/03/14 02:06:06;;;;;;;23.52;11.75;;;8.40;99.90;;;;;;5053147;28;20075;-50
2022/03/14 02:08:32;;;;;;;25.75;11.60;;;8.50;99.90;;;;;;5054166;28;20025;-49
2022/03/14 02:10:58;;;;;;;24.95;12.48;;;8.40;99.90;;;;;;5052815;28;20017;-46
2022/03/14 02:13:23;;;;;;;21.52;10.77;;;8.30;99.90;;;;;;5053946;28;20106;-46
2022/03/14 02:15:49;;;;;;;24.67;12.23;;;8.30;99.90;;;;;;5053768;28;20025;-46
2022/03/14 02:18:15;;;;;;;31.08;13.30;;;8.40;99.90;;;;;;5053866;28;20032;-47
2022/03/14 02:20:41;;;;;;;22.98;11.35;;;8.40;99.90;;;;;;5054283;28;20033;-47
2022/03/14 02:23:06;;;;;;;26.13;12.25;;;8.40;99.90;;;;;;5054020;28;20033;-46
2022/03/14 02:25:35;;;;;;;25.98;12.77;;;8.30;99.90;;;;;;5053689;28;20029;-50
2022/03/14 02:28:01;;;;;;;32.53;12.13;;;8.30;99.90;;;;;;5052971;28;20017;-46
2022/03/14 02:30:27;;;;;;;28.00;12.63;;;8.30;99.90;;;;;;5052701;28;20021;-49
2022/03/14 02:32:53;;;;;;;27.42;12.90;;;8.30;99.90;;;;;;5052732;28;20079;-52
2022/03/14 02:35:19;;;;;;;28.98;12.48;;;8.30;99.90;;;;;;5052541;28;20055;-48
2022/03/14 02:37:44;;;;;;;27.48;13.13;;;8.30;99.90;;;;;;5053564;28;20032;-46
2022/03/14 02:40:10;;;;;;;25.40;12.73;;;8.30;99.90;;;;;;5053472;28;20490;-46
2022/03/14 02:42:36;;;;;;;23.02;11.73;;;8.30;99.90;;;;;;5053388;28;20078;-48
2022/03/14 02:45:04;;;;;;;24.55;12.35;;;8.40;99.90;;;;;;5053437;28;20100;-47
2022/03/14 02:47:30;;;;;;;25.30;11.25;;;8.70;99.90;;;;;;5052511;28;20163;-47
2022/03/14 02:49:55;;;;;;;25.75;12.40;;;8.80;99.90;;;;;;5053459;28;20055;-46
2022/03/14 02:52:21;;;;;;;25.60;10.98;;;8.70;99.90;;;;;;5053199;28;20494;-46
2022/03/14 02:55:35;;;;;;;24.55;12.05;;;8.60;99.90;;;;;;5052724;28;20088;-48
2022/03/14 02:58:00;;;;;;;23.45;11.73;;;8.60;99.90;;;;;;5053704;28;20078;-46
2022/03/14 03:00:26;;;;;;;24.85;12.75;;;8.50;99.90;;;;;;5053265;28;20081;-46
2022/03/14 03:02:51;;;;;;;22.33;11.43;;;8.50;99.90;;;;;;5053196;28;20032;-46
2022/03/14 03:05:17;;;;;;;23.52;11.55;;;8.50;99.90;;;;;;5051984;28;20029;-51
2022/03/14 03:07:43;;;;;;;22.33;11.25;;;8.50;99.90;;;;;;5053488;28;20028;-50
2022/03/14 03:10:10;;;;;;;25.20;11.57;;;8.50;99.90;;;;;;5053137;28;20017;-48
2022/03/14 03:12:40;;;;;;;22.63;11.40;;;8.40;99.90;;;;;;5053717;28;20028;-51
2022/03/14 03:15:06;;;;;;;27.33;12.50;;;8.40;99.90;;;;;;5053368;28;20031;-48
2022/03/14 03:17:32;;;;;;;24.48;11.82;;;8.40;99.90;;;;;;5052994;28;20036;-49
2022/03/14 03:19:58;;;;;;;24.88;12.10;;;8.30;99.90;;;;;;5051901;28;20025;-50
2022/03/14 03:22:27;;;;;;;23.60;11.40;;;8.20;99.90;;;;;;5052136;28;20029;-53
2022/03/14 03:24:52;;;;;;;25.38;11.98;;;8.30;99.90;;;;;;5052295;28;20029;-51
2022/03/14 03:27:19;;;;;;;28.67;13.07;;;8.30;99.90;;;;;;5053316;28;20127;-49
2022/03/14 03:29:45;;;;;;;23.63;11.25;;;8.40;99.90;;;;;;5053010;28;20439;-46
2022/03/14 03:32:10;;;;;;;22.10;11.32;;;8.50;99.90;;;;;;5051783;28;20044;-46
2022/03/14 03:34:36;;;;;;;21.23;10.93;;;8.50;99.90;;;;;;5051681;28;20029;-46
2022/03/14 03:37:02;;;;;;;27.98;12.13;;;8.40;99.90;;;;;;5052889;28;20067;-48
2022/03/14 03:39:27;;;;;;;23.23;10.93;;;8.40;99.90;;;;;;5052802;28;20108;-47
2022/03/14 03:41:53;;;;;;;24.52;11.13;;;8.30;99.90;;;;;;5051706;28;20053;-47
2022/03/14 03:44:18;;;;;;;24.42;12.25;;;8.30;99.90;;;;;;5051824;28;20082;-46
2022/03/14 03:46:44;;;;;;;25.08;11.60;;;8.30;99.90;;;;;;5051538;28;20029;-48
2022/03/14 03:49:10;;;;;;;28.75;11.80;;;8.20;99.90;;;;;;5051685;28;20025;-46
2022/03/14 03:51:35;;;;;;;22.88;11.55;;;8.00;99.90;;;;;;5051960;28;20025;-45
2022/03/14 03:54:02;;;;;;;22.88;11.43;;;8.00;99.90;;;;;;5052561;28;20051;-46
2022/03/14 03:56:27;;;;;;;25.27;11.40;;;8.00;99.90;;;;;;5053184;28;20040;-46
2022/03/14 03:58:53;;;;;;;20.73;10.75;;;8.00;99.90;;;;;;5051578;28;20021;-47
2022/03/14 04:01:21;;;;;;;21.25;11.27;;;8.00;99.90;;;;;;5053129;28;20025;-46
2022/03/14 04:03:54;;;;;;;24.25;11.43;;;8.00;99.90;;;;;;5052670;28;20021;-46
2022/03/14 04:06:24;;;;;;;34.15;10.43;;;8.00;99.90;;;;;;5053019;28;20021;-47
2022/03/14 04:08:50;;;;;;;22.80;10.52;;;8.10;99.90;;;;;;5056065;28;20024;-46
2022/03/14 04:11:16;;;;;;;21.50;10.63;;;8.10;99.90;;;;;;5056328;28;20440;-47
2022/03/14 04:13:42;;;;;;;25.95;12.40;;;8.10;99.90;;;;;;5056229;28;20025;-46
2022/03/14 04:16:07;;;;;;;23.73;10.60;;;8.10;99.90;;;;;;5056166;28;20024;-46
2022/03/14 04:18:33;;;;;;;23.33;12.10;;;7.90;99.90;;;;;;5056219;28;20021;-46
2022/03/14 04:20:59;;;;;;;23.10;12.57;;;7.90;99.90;;;;;;5056418;28;20031;-46
2022/03/14 04:23:24;;;;;;;24.77;11.50;;;7.90;99.90;;;;;;5055081;28;20033;-46
2022/03/14 04:25:50;;;;;;;23.52;11.30;;;7.90;99.90;;;;;;5055737;28;20539;-46
2022/03/14 04:28:16;;;;;;;19.48;11.15;;;8.00;99.90;;;;;;5054742;28;20078;-47
2022/03/14 04:30:42;;;;;;;26.48;12.05;;;8.00;99.90;;;;;;5056173;28;20021;-48
2022/03/14 04:33:09;;;;;;;23.45;11.35;;;8.10;99.90;;;;;;5055916;28;20028;-46
2022/03/14 04:35:35;;;;;;;23.35;11.43;;;8.20;99.90;;;;;;5055739;28;20029;-46
2022/03/14 04:38:02;;;;;;;23.17;11.75;;;8.20;99.90;;;;;;5054562;28;20033;-49
2022/03/14 04:40:28;;;;;;;22.73;10.85;;;8.20;99.90;;;;;;5054517;28;20479;-47
2022/03/14 04:42:54;;;;;;;25.50;11.82;;;8.30;99.90;;;;;;5055936;28;20050;-46
2022/03/14 04:45:20;;;;;;;24.00;11.68;;;8.30;99.90;;;;;;5054212;28;20115;-53
2022/03/14 04:47:45;;;;;;;26.77;12.32;;;8.40;99.90;;;;;;5055954;28;20025;-53
2022/03/14 04:50:11;;;;;;;29.23;12.48;;;8.20;99.90;;;;;;5054824;28;20388;-50
2022/03/14 04:52:36;;;;;;;27.27;14.00;;;8.10;99.90;;;;;;5054550;28;20035;-47
2022/03/14 04:55:02;;;;;;;30.45;14.05;;;8.10;99.90;;;;;;5054639;28;20142;-47
2022/03/14 04:57:28;;;;;;;33.95;15.15;;;8.00;99.90;;;;;;5054438;28;20025;-47
2022/03/14 04:59:54;;;;;;;31.85;14.65;;;8.00;99.90;;;;;;5054970;28;20087;-48
2022/03/14 05:02:23;;;;;;;32.30;15.05;;;8.00;99.90;;;;;;5054141;28;20029;-47
2022/03/14 05:04:52;;;;;;;25.95;13.45;;;8.00;99.90;;;;;;5054856;28;20025;-47
2022/03/14 05:07:18;;;;;;;34.25;13.95;;;7.90;99.90;;;;;;5055252;28;20017;-46
2022/03/14 05:09:43;;;;;;;32.72;13.68;;;7.90;99.90;;;;;;5055185;28;20023;-47
2022/03/14 05:12:11;;;;;;;32.10;13.55;;;8.00;99.90;;;;;;5053914;28;20028;-48
2022/03/14 05:14:38;;;;;;;27.98;12.90;;;8.00;99.90;;;;;;5055418;28;20505;-47
2022/03/14 05:17:04;;;;;;;27.02;12.70;;;7.90;99.90;;;;;;5054599;28;20033;-47
2022/03/14 05:19:29;;;;;;;29.20;14.15;;;7.90;99.90;;;;;;5055226;28;20025;-47
2022/03/14 05:21:55;;;;;;;27.42;13.40;;;8.00;99.90;;;;;;5053681;28;20063;-47
2022/03/14 05:24:20;;;;;;;30.10;14.25;;;8.00;99.90;;;;;;5054949;28;20050;-47
2022/03/14 05:26:47;;;;;;;25.50;13.10;;;8.10;99.90;;;;;;5053979;28;20022;-47
2022/03/14 05:29:14;;;;;;;26.50;13.70;;;8.10;99.90;;;;;;5054817;28;20024;-46
2022/03/14 05:31:40;;;;;;;29.08;13.93;;;8.10;99.90;;;;;;5055056;28;20013;-47
2022/03/14 05:34:07;;;;;;;27.92;14.63;;;8.10;99.90;;;;;;5054808;28;20032;-47
2022/03/14 05:36:33;;;;;;;26.20;12.50;;;8.00;99.90;;;;;;5054651;28;20472;-50
2022/03/14 05:38:58;;;;;;;30.02;14.07;;;8.10;99.90;;;;;;5053727;28;20029;-48
2022/03/14 05:41:24;;;;;;;25.95;12.73;;;8.10;99.90;;;;;;5054617;28;20033;-49
2022/03/14 05:43:49;;;;;;;25.98;13.00;;;8.10;99.90;;;;;;5054550;28;20103;-47
2022/03/14 05:46:15;;;;;;;24.98;12.50;;;8.10;99.90;;;;;;5054546;28;20021;-48
2022/03/14 05:48:41;;;;;;;25.25;13.07;;;8.10;99.90;;;;;;5053529;28;20021;-48
2022/03/14 05:51:09;;;;;;;28.17;13.43;;;8.20;99.90;;;;;;5054674;28;20028;-49
2022/03/14 05:53:35;;;;;;;32.05;13.75;;;8.20;99.90;;;;;;5053452;28;20021;-48
2022/03/14 05:56:01;;;;;;;30.95;14.57;;;8.20;99.90;;;;;;5054258;28;20028;-47
2022/03/14 05:58:26;;;;;;;27.08;13.80;;;8.10;99.90;;;;;;5053142;28;20021;-47
2022/03/14 06:00:52;;;;;;;28.30;13.70;;;8.00;99.90;;;;;;5054137;28;20021;-48
2022/03/14 06:03:22;;;;;;;25.85;13.63;;;8.00;99.90;;;;;;5052996;28;20586;-48
2022/03/14 06:05:49;;;;;;;33.38;16.60;;;7.90;99.90;;;;;;5054148;28;20025;-49
2022/03/14 06:08:17;;;;;;;28.20;15.15;;;7.90;99.90;;;;;;5052945;28;20104;-49
2022/03/14 06:10:45;;;;;;;29.90;13.88;;;7.80;99.90;;;;;;5054030;28;20150;-49
2022/03/14 06:13:11;;;;;;;32.67;14.70;;;7.90;99.90;;;;;;5052850;28;20078;-47
2022/03/14 06:15:37;;;;;;;28.50;13.93;;;7.90;99.90;;;;;;5054012;28;20052;-49
2022/03/14 06:18:02;;;;;;;30.10;15.25;;;7.90;99.90;;;;;;5053017;28;20114;-51
2022/03/14 06:20:28;;;;;;;35.90;17.92;;;7.80;99.90;;;;;;5053940;28;20029;-50
2022/03/14 06:22:53;;;;;;;30.38;14.57;;;7.80;99.90;;;;;;5053711;28;20087;-50
2022/03/14 06:25:19;;;;;;;30.30;14.98;;;7.90;99.90;;;;;;5053720;28;20025;-48
2022/03/14 06:27:45;;;;;;;25.48;12.55;;;8.00;99.90;;;;;;5052615;28;20032;-49
2022/03/14 06:30:11;;;;;;;28.88;12.52;;;7.90;99.90;;;;;;5053541;28;20017;-49
2022/03/14 06:32:39;;;;;;;26.95;13.20;;;7.90;99.90;;;;;;5053623;28;20441;-49
2022/03/14 06:35:06;;;;;;;31.10;13.07;;;7.80;99.90;;;;;;5053600;28;20084;-49
2022/03/14 06:37:32;;;;;;;23.17;12.80;;;7.80;99.90;;;;;;5052603;28;20112;-49
2022/03/14 06:39:58;;;;;;;25.60;12.82;;;7.90;99.90;;;;;;5052294;28;20128;-49
2022/03/14 06:42:24;;;;;;;27.58;14.10;;;7.80;99.90;;;;;;5053921;28;20025;-48
2022/03/14 06:44:50;;;;;;;32.22;14.05;;;7.90;99.90;;;;;;5053474;28;20032;-51
2022/03/14 06:47:19;;;;;;;24.30;12.68;;;7.80;99.90;;;;;;5052146;28;20055;-51
2022/03/14 06:49:45;;;;;;;25.85;13.05;;;7.90;99.90;;;;;;5053525;28;20070;-50
2022/03/14 06:52:12;;;;;;;33.40;15.35;;;7.90;99.90;;;;;;5053419;28;20031;-47
2022/03/14 06:54:38;;;;;;;24.75;12.23;;;7.80;99.90;;;;;;5052943;28;20414;-47
2022/03/14 06:57:07;;;;;;;26.17;12.27;;;7.70;99.90;;;;;;5053553;28;20036;-47
2022/03/14 06:59:33;;;;;;;20.73;10.27;;;7.70;99.90;;;;;;5053397;28;20047;-47
2022/03/14 07:01:59;;;;;;;28.45;11.18;;;7.80;99.90;;;;;;5053544;28;20108;-48
2022/03/14 07:04:25;;;;;;;25.23;11.68;;;7.80;99.90;;;;;;5053220;28;20039;-47
2022/03/14 07:06:51;;;;;;;23.92;11.98;;;7.80;99.90;;;;;;5051894;28;20104;-46
2022/03/14 07:09:16;;;;;;;26.13;12.75;;;7.80;99.90;;;;;;5052261;28;20052;-46
2022/03/14 07:11:42;;;;;;;26.95;12.02;;;7.80;99.90;;;;;;5053217;28;20018;-47
2022/03/14 07:14:08;;;;;;;25.67;11.38;;;7.90;99.90;;;;;;5053139;28;20124;-47
2022/03/14 07:16:34;;;;;;;30.02;12.82;;;8.10;99.90;;;;;;5052198;28;20510;-47
2022/03/14 07:18:59;;;;;;;27.02;13.07;;;8.20;99.90;;;;;;5051887;28;20120;-46
2022/03/14 07:21:28;;;;;;;30.77;13.23;;;8.30;99.90;;;;;;5052263;28;20060;-47
2022/03/14 07:23:57;;;;;;;27.50;12.73;;;8.50;99.90;;;;;;5053041;28;20047;-48
2022/03/14 07:26:23;;;;;;;22.95;12.60;;;8.50;99.90;;;;;;5053073;28;20024;-47
2022/03/14 07:28:49;;;;;;;34.10;13.32;;;8.60;99.90;;;;;;5053046;28;20112;-47
2022/03/14 07:31:19;;;;;;;25.35;12.10;;;8.60;99.90;;;;;;5051890;28;20057;-47
2022/03/14 07:33:45;;;;;;;20.55;10.25;;;8.70;99.90;;;;;;5051756;28;20067;-47
2022/03/14 07:36:11;;;;;;;24.92;12.63;;;8.80;99.90;;;;;;5051948;28;20021;-47
2022/03/14 07:38:37;;;;;;;21.10;11.48;;;8.90;99.90;;;;;;5053320;28;20024;-46
2022/03/14 07:41:03;;;;;;;25.05;11.82;;;9.00;99.90;;;;;;5054146;28;20036;-47
2022/03/14 07:43:28;;;;;;;30.70;14.48;;;9.10;99.90;;;;;;5055914;28;20032;-46
2022/03/14 07:45:54;;;;;;;21.27;10.20;;;9.20;99.90;;;;;;5055489;28;20021;-48
2022/03/14 07:48:20;;;;;;;13.15;6.30;;;9.40;99.90;;;;;;5056798;28;20032;-50
2022/03/14 07:50:45;;;;;;;7.53;3.88;;;9.50;99.90;;;;;;5056818;28;20028;-46
2022/03/14 07:53:11;;;;;;;9.82;4.70;;;9.70;99.90;;;;;;5057109;28;20383;-51
2022/03/14 07:55:36;;;;;;;6.68;3.25;;;9.80;99.90;;;;;;5056993;28;20025;-48
2022/03/14 07:58:02;;;;;;;13.25;3.35;;;9.90;99.90;;;;;;5056615;28;20098;-47
2022/03/14 08:00:28;;;;;;;4.32;2.60;;;9.90;99.90;;;;;;5055788;28;20115;-46
2022/03/14 08:02:55;;;;;;;7.50;3.10;;;10.00;99.90;;;;;;5056122;28;20056;-47
2022/03/14 08:05:26;;;;;;;4.35;2.60;;;10.10;99.90;;;;;;5055960;28;20025;-48
2022/03/14 08:07:52;;;;;;;4.72;2.95;;;10.30;99.90;;;;;;5060741;28;20033;-47
2022/03/14 08:10:18;;;;;;;7.00;2.60;;;10.30;99.90;;;;;;5057036;28;20029;-50
2022/03/14 08:12:46;;;;;;;4.07;1.75;;;10.40;99.90;;;;;;5056579;28;20028;-48
2022/03/14 08:15:25;;;;;;;5.00;2.20;;;10.50;99.90;;;;;;5055916;28;20037;-47
2022/03/14 08:17:52;;;;;;;4.55;1.90;;;10.60;99.90;;;;;;5056461;28;20016;-48
2022/03/14 08:20:19;;;;;;;5.07;1.92;;;10.70;99.90;;;;;;5055035;28;20033;-52
2022/03/14 08:22:45;;;;;;;3.30;1.50;;;10.70;99.90;;;;;;5055767;28;20029;-45
2022/03/14 08:25:11;;;;;;;3.83;1.67;;;10.90;99.90;;;;;;5056087;28;20083;-46
2022/03/14 08:27:38;;;;;;;5.13;1.92;;;10.90;99.90;;;;;;5056633;28;20021;-46
2022/03/14 08:30:05;;;;;;;6.88;3.35;;;11.00;99.90;;;;;;5055289;28;20025;-47
2022/03/14 08:32:32;;;;;;;5.05;1.90;;;10.90;99.90;;;;;;5055946;28;20025;-46
2022/03/14 08:35:02;;;;;;;5.43;2.25;;;10.90;99.90;;;;;;5056148;28;20021;-46
2022/03/14 08:37:28;;;;;;;4.30;2.00;;;10.80;99.90;;;;;;5054951;28;20028;-46
2022/03/14 08:39:53;;;;;;;3.67;1.88;;;10.80;99.90;;;;;;5055788;28;20025;-47
2022/03/14 08:42:19;;;;;;;4.95;2.28;;;10.80;99.90;;;;;;5056183;28;20017;-46
2022/03/14 08:44:45;;;;;;;2.38;1.70;;;10.70;99.90;;;;;;5055905;28;20028;-46
2022/03/14 08:47:10;;;;;;;5.38;2.15;;;10.70;99.90;;;;;;5054666;28;20017;-47
2022/03/14 08:49:37;;;;;;;1.90;1.50;;;10.70;99.90;;;;;;5055690;28;20025;-46
2022/03/14 08:52:06;;;;;;;3.70;1.92;;;10.80;99.90;;;;;;5054258;28;20021;-46
2022/03/14 08:54:32;;;;;;;6.47;2.10;;;10.90;99.90;;;;;;5054268;28;20021;-47
2022/03/14 08:56:57;;;;;;;5.72;2.42;;;11.00;99.90;;;;;;5055547;28;20029;-47
2022/03/14 08:59:24;;;;;;;3.83;2.08;;;11.10;99.90;;;;;;5054255;28;20021;-46
2022/03/14 09:01:49;;;;;;;7.32;1.95;;;11.20;99.90;;;;;;5054139;28;20036;-47
2022/03/14 09:04:16;;;;;;;8.00;2.40;;;11.40;99.90;;;;;;5053997;28;20029;-45
2022/03/14 09:06:42;;;;;;;8.07;1.88;;;11.50;99.90;;;;;;5054044;28;20487;-46
2022/03/14 09:09:08;;;;;;;6.55;1.88;;;11.50;99.90;;;;;;5055093;28;20028;-45
2022/03/14 09:11:33;;;;;;;3.45;1.88;;;11.60;99.90;;;;;;5054002;28;20032;-45
2022/03/14 09:13:59;;;;;;;6.80;2.50;;;11.60;99.90;;;;;;5055191;28;20028;-46
2022/03/14 09:16:25;;;;;;;7.28;2.08;;;11.60;99.90;;;;;;5053887;28;20017;-47
2022/03/14 09:18:52;;;;;;;7.63;1.75;;;11.70;99.90;;;;;;5053803;28;20021;-46
2022/03/14 09:21:18;;;;;;;5.70;1.65;;;11.70;99.90;;;;;;5054420;28;20017;-46
2022/03/14 09:23:44;;;;;;;2.75;1.42;;;11.70;99.90;;;;;;5054931;28;20092;-46
2022/03/14 09:26:10;;;;;;;4.88;2.05;;;11.60;99.90;;;;;;5054854;28;20099;-46
2022/03/14 09:28:37;;;;;;;3.15;1.60;;;11.50;99.90;;;;;;5053674;28;20171;-46
2022/03/14 09:31:03;;;;;;;3.53;1.88;;;11.40;99.90;;;;;;5054089;28;20053;-48
2022/03/14 09:33:29;;;;;;;3.83;1.85;;;11.40;99.90;;;;;;5053776;28;20093;-47
2022/03/14 09:35:54;;;;;;;4.85;2.08;;;11.40;99.90;;;;;;5053795;28;20116;-47
2022/03/14 09:38:20;;;;;;;4.47;1.38;;;11.50;99.90;;;;;;5054696;28;20051;-46
2022/03/14 09:40:48;;;;;;;4.07;1.80;;;11.60;99.90;;;;;;5053766;28;20033;-46
2022/03/14 09:43:18;;;;;;;4.70;1.52;;;11.60;99.90;;;;;;5053918;28;20024;-47
2022/03/14 09:45:50;;;;;;;7.60;2.08;;;11.50;99.90;;;;;;5054099;28;20048;-47
2022/03/14 09:48:16;;;;;;;4.20;1.45;;;11.50;99.90;;;;;;5054582;28;20029;-48
2022/03/14 09:50:47;;;;;;;3.10;1.48;;;11.40;99.90;;;;;;5053631;28;20028;-47
2022/03/14 09:53:14;;;;;;;3.53;1.30;;;11.40;99.90;;;;;;5053231;28;20104;-52
2022/03/14 09:55:46;;;;;;;4.28;1.35;;;11.40;99.90;;;;;;5053067;28;20048;-50
2022/03/14 09:58:15;;;;;;;4.97;1.92;;;11.40;99.90;;;;;;5053103;28;20396;-50
2022/03/14 10:00:42;;;;;;;5.15;1.75;;;11.50;99.90;;;;;;5053081;28;20037;-49
2022/03/14 10:03:08;;;;;;;4.75;1.58;;;11.50;99.90;;;;;;5053985;28;20025;-46
2022/03/14 10:05:34;;;;;;;4.38;1.52;;;11.60;99.90;;;;;;5054123;28;20025;-47
2022/03/14 10:08:00;;;;;;;7.90;2.60;;;11.60;99.90;;;;;;5054265;28;20031;-46
2022/03/14 10:10:27;;;;;;;6.45;1.70;;;11.60;99.90;;;;;;5053133;28;20021;-46
2022/03/14 10:12:53;;;;;;;6.15;1.58;;;11.70;99.90;;;;;;5052797;28;20021;-46
2022/03/14 10:15:20;;;;;;;2.53;1.77;;;11.70;99.90;;;;;;5053853;28;20025;-46
2022/03/14 10:17:46;;;;;;;4.85;1.40;;;11.80;99.90;;;;;;5052680;28;20031;-46
2022/03/14 10:20:15;;;;;;;2.88;1.70;;;11.90;99.90;;;;;;5053967;28;20021;-46
2022/03/14 10:22:41;;;;;;;3.80;1.58;;;12.00;99.90;;;;;;5054068;28;20033;-46
2022/03/14 10:25:09;;;;;;;3.42;1.35;;;12.20;99.90;;;;;;5052576;28;20033;-46
2022/03/14 10:27:37;;;;;;;5.43;1.67;;;12.40;99.90;;;;;;5053840;28;20021;-46
2022/03/14 10:30:05;;;;;;;4.97;1.60;;;12.70;99.90;;;;;;5052532;28;20051;-47
2022/03/14 10:32:31;;;;;;;9.13;2.13;;;12.90;99.90;;;;;;5052426;28;20032;-46
2022/03/14 10:35:04;;;;;;;2.90;1.40;;;13.20;99.90;;;;;;5052451;28;20021;-47
2022/03/14 10:37:31;;;;;;;4.82;1.55;;;13.70;99.90;;;;;;5053565;28;20017;-47
2022/03/14 10:40:10;;;;;;;3.20;1.25;;;13.90;99.90;;;;;;5052408;28;20028;-46
2022/03/14 10:42:42;;;;;;;4.65;1.48;;;14.00;99.90;;;;;;5052475;28;20039;-46
2022/03/14 10:45:15;;;;;;;7.82;1.33;;;14.00;99.90;;;;;;5052762;28;20025;-49
2022/03/14 10:47:52;;;;;;;3.85;1.38;;;14.00;99.90;;;;;;5052474;28;20021;-48
2022/03/14 10:50:36;;;;;;;3.22;1.55;;;13.90;99.90;;;;;;5052262;28;20082;-46
2022/03/14 10:53:09;;;;;;;14.43;6.05;;;13.70;99.90;;;;;;5052485;28;20028;-48
2022/03/14 10:55:38;;;;;;;16.08;7.05;;;13.60;99.90;;;;;;5052115;28;20051;-47
2022/03/14 10:58:21;;;;;;;10.73;5.07;;;13.60;99.90;;;;;;5053414;28;20032;-49
2022/03/14 11:00:55;;;;;;;12.07;5.43;;;13.60;99.90;;;;;;5053727;28;20025;-46
2022/03/14 11:03:25;;;;;;;7.03;2.28;;;13.60;99.90;;;;;;5052204;28;20025;-47
2022/03/14 11:05:52;;;;;;;6.00;2.30;;;13.70;99.90;;;;;;5053336;28;20021;-47
2022/03/14 11:08:32;;;;;;;4.10;1.77;;;13.70;99.90;;;;;;5053337;28;20025;-47
2022/03/14 11:11:01;;;;;;;8.20;3.70;;;13.90;99.90;;;;;;5053361;28;20143;-50
2022/03/14 11:13:27;;;;;;;5.72;2.30;;;14.20;99.90;;;;;;5051910;28;20317;-48
2022/03/14 11:15:53;;;;;;;5.85;2.95;;;14.40;99.90;;;;;;5054318;28;20074;-46
2022/03/14 11:18:21;;;;;;;5.13;2.88;;;14.50;99.90;;;;;;5057313;28;20025;-46
2022/03/14 11:20:47;;;;;;;6.05;3.47;;;14.60;99.90;;;;;;5057666;28;20036;-48
2022/03/14 11:23:16;;;;;;;7.28;2.90;;;14.80;99.90;;;;;;5057132;28;20024;-46
2022/03/14 11:25:46;;;;;;;6.00;2.92;;;15.00;99.90;;;;;;5056097;28;20048;-47
2022/03/14 11:28:16;;;;;;;4.03;1.75;;;15.10;99.90;;;;;;5057337;28;20021;-47
2022/03/14 11:30:48;;;;;;;3.83;1.80;;;15.20;99.90;;;;;;5057237;28;20170;-46
2022/03/14 11:33:14;;;;;;;4.60;1.60;;;15.30;99.90;;;;;;5057452;28;20017;-51
2022/03/14 11:35:42;;;;;;;5.50;2.10;;;15.40;99.90;;;;;;5056981;28;20388;-47
2022/03/14 11:38:08;;;;;;;3.88;1.80;;;15.60;99.90;;;;;;5057031;28;20104;-49
2022/03/14 11:40:37;;;;;;;3.53;1.70;;;15.60;99.90;;;;;;5057082;28;20029;-48
2022/03/14 11:43:03;;;;;;;4.15;2.05;;;15.60;99.90;;;;;;5055719;28;20036;-51
2022/03/14 11:45:31;;;;;;;4.10;1.60;;;15.80;99.90;;;;;;5055374;28;20120;-49
2022/03/14 11:47:57;;;;;;;5.13;1.98;;;16.00;99.90;;;;;;5056812;28;20104;-54
2022/03/14 11:50:23;;;;;;;4.57;1.90;;;16.10;99.90;;;;;;5055894;28;20025;-49
2022/03/14 11:52:55;;;;;;;4.28;1.75;;;16.20;99.90;;;;;;5056677;28;20021;-50
2022/03/14 11:55:24;;;;;;;4.47;1.73;;;16.30;99.90;;;;;;5056691;28;20025;-50
2022/03/14 11:57:50;;;;;;;3.45;1.42;;;16.30;99.90;;;;;;5055706;28;20028;-52
2022/03/14 12:00:25;;;;;;;4.38;2.03;;;16.10;99.90;;;;;;5055284;28;20051;-53
2022/03/14 12:03:27;;;;;;;5.32;2.20;;;16.00;99.90;;;;;;5055287;28;20083;-50
2022/03/14 12:05:53;;;;;;;;;;;15.90;99.90;;;;;;5057472;28;20541;-53
2022/03/14 12:08:25;;;;;;;5.00;1.88;;;15.80;99.90;;;;;;5056013;28;19904;-52
2022/03/14 12:10:50;;;;;;;4.25;1.40;;;15.70;99.90;;;;;;5056446;28;20021;-54
2022/03/14 12:13:42;;;;;;;1.95;1.08;;;15.70;99.90;;;;;;5055200;28;20021;-49
2022/03/14 12:16:42;;;;;;;6.75;1.77;;;15.70;99.90;;;;;;5054989;28;20061;-52
2022/03/14 12:19:29;;;;;;;4.18;2.00;;;15.80;99.90;;;;;;5055361;28;20499;-54
2022/03/14 12:21:56;;;;;;;4.40;2.47;;;15.80;99.90;;;;;;5056426;28;20021;-54
2022/03/14 12:24:37;;;;;;;7.28;3.00;;;15.70;99.90;;;;;;5056172;28;20021;-47
2022/03/14 12:27:23;;;;;;;7.40;2.70;;;15.60;99.90;;;;;;5054545;28;20060;-47
2022/03/14 12:29:51;;;;;;;4.15;1.77;;;15.50;99.90;;;;;;5047967;28;20039;-48
2022/03/14 12:32:23;;;;;;;2.25;1.20;;;15.60;99.90;;;;;;5054722;28;20029;-47
2022/03/14 12:35:02;;;;;;;7.53;1.77;;;15.80;99.90;;;;;;5055568;28;20083;-48
2022/03/14 12:37:38;;;;;;;3.85;1.23;;;15.90;99.90;;;;;;5056428;28;20032;-48
2022/03/14 12:40:26;;;;;;;5.90;1.88;;;15.70;99.90;;;;;;5056142;28;20036;-47
2022/03/14 12:42:54;;;;;;;2.47;1.40;;;15.80;99.90;;;;;;5047289;28;20040;-48